Theresa S Krause — WDE6855 — position and weather

sailwx.info

Track history (hours):
 
Tides and Currents Weather Stations Pressure Air Temp Water Temp Dewpoint Dewpoint Depression Visibility Wind Speed Wind Dir Waves Ship Positions

Theresa S Krause

Owner: KRAUSE MARINE TOWING CORPORATION, WHITE MARSH, MD. More information available from US FCC via Universal Licensing System and Coast Guard Vessel Documentation Center.

Last reported at 2018-Jan-31 15:33 UTC. Time now 2018-Feb-18 18:25 UTC.
Position N 39°16' W 076°34'.
Warning: this ship's position is 18 days out of date.

; draft 4.5 m.

Type: Tug. MMSI: 367385760.

Date/timePositionNaut miles runAvg speedWind from/ knotsBaromVisibWave heightAir tempDewpointWater temp
2018-Jan-31 15:33N 39°16' W 076°34'1 9.7
2018-Jan-31 15:30N 39°15' W 076°34'5 9.8
2018-Jan-31 15:00N 39°12' W 076°30'5 9.3
2018-Jan-31 14:30N 39°09' W 076°25'14 9.2
2018-Jan-31 13:00N 38°56' W 076°24'5 9.2
2018-Jan-31 12:30N 38°51' W 076°25'5 9.1
2018-Jan-31 11:59N 38°46' W 076°26'45 8.3
2018-Jan-31 06:34N 38°02' W 076°22'1 9.6
2018-Jan-31 06:30N 38°02' W 076°23'5 9.3
2018-Jan-31 06:01N 38°05' W 076°28'5 6.7
2018-Jan-31 05:17N 38°08' W 076°32'0 0.0
2018-Jan-31 04:59N 38°08' W 076°32'0 0.1
2018-Jan-31 04:25N 38°08' W 076°32'0 0.0
2018-Jan-31 03:53N 38°08' W 076°32'0 0.0
2018-Jan-31 03:24N 38°08' W 076°32'0 0.0
2018-Jan-31 02:59N 38°08' W 076°32'0 0.0
2018-Jan-31 02:28N 38°08' W 076°32'0 0.0
2018-Jan-31 01:59N 38°08' W 076°32'0 0.0
2018-Jan-31 01:24N 38°08' W 076°32'0 0.0
2018-Jan-31 01:00N 38°08' W 076°32'2 0.1
2018-Jan-29 05:32N 38°06' W 076°30'45 7.3
2018-Jan-28 23:21N 38°51' W 076°26'410.5
2018-Jan-28 23:00N 38°54' W 076°25'510.1
2018-Jan-28 22:28N 38°60' W 076°23'14 8.4
2018-Jan-28 20:49N 39°12' W 076°31'4 8.4
2018-Jan-28 20:20N 39°15' W 076°34'  
2018-Jan-25 17:32N 39°16' W 076°35'0 2.0
2018-Jan-25 17:30N 39°16' W 076°35'1 1.1
2018-Jan-25 17:00N 39°16' W 076°34'0 0.6
2018-Jan-25 16:30N 39°16' W 076°35'  
Track history (hours):
 
Tides and Currents Weather Stations Pressure Air Temp Water Temp Dewpoint Dewpoint Depression Visibility Wind Speed Wind Dir Waves Ship Positions

Theresa S Krause

Owner: KRAUSE MARINE TOWING CORPORATION, WHITE MARSH, MD. More information available from US FCC via Universal Licensing System and Coast Guard Vessel Documentation Center.

Last reported at 2018-Jan-31 15:33 UTC. Time now 2018-Feb-18 18:25 UTC.
Position N 39°16' W 076°34'.
Warning: this ship's position is 18 days out of date.

; draft 4.5 m.

Type: Tug. MMSI: 367385760.

Date/timePositionNaut miles runAvg speedWind from/ knotsBaromVisibWave heightAir tempDewpointWater temp
2018-Jan-31 15:33N 39°16' W 076°34'1 9.7
2018-Jan-31 15:30N 39°15' W 076°34'5 9.8
2018-Jan-31 15:00N 39°12' W 076°30'5 9.3
2018-Jan-31 14:30N 39°09' W 076°25'14 9.2
2018-Jan-31 13:00N 38°56' W 076°24'5 9.2
2018-Jan-31 12:30N 38°51' W 076°25'5 9.1
2018-Jan-31 11:59N 38°46' W 076°26'45 8.3
2018-Jan-31 06:34N 38°02' W 076°22'1 9.6
2018-Jan-31 06:30N 38°02' W 076°23'5 9.3
2018-Jan-31 06:01N 38°05' W 076°28'5 6.7
2018-Jan-31 05:17N 38°08' W 076°32'0 0.0
2018-Jan-31 04:59N 38°08' W 076°32'0 0.1
2018-Jan-31 04:25N 38°08' W 076°32'0 0.0
2018-Jan-31 03:53N 38°08' W 076°32'0 0.0
2018-Jan-31 03:24N 38°08' W 076°32'0 0.0
2018-Jan-31 02:59N 38°08' W 076°32'0 0.0
2018-Jan-31 02:28N 38°08' W 076°32'0 0.0
2018-Jan-31 01:59N 38°08' W 076°32'0 0.0
2018-Jan-31 01:24N 38°08' W 076°32'0 0.0
2018-Jan-31 01:00N 38°08' W 076°32'2 0.1
2018-Jan-29 05:32N 38°06' W 076°30'45 7.3
2018-Jan-28 23:21N 38°51' W 076°26'410.5
2018-Jan-28 23:00N 38°54' W 076°25'510.1
2018-Jan-28 22:28N 38°60' W 076°23'14 8.4
2018-Jan-28 20:49N 39°12' W 076°31'4 8.4
2018-Jan-28 20:20N 39°15' W 076°34'  
2018-Jan-25 17:32N 39°16' W 076°35'0 2.0
2018-Jan-25 17:30N 39°16' W 076°35'1 1.1
2018-Jan-25 17:00N 39°16' W 076°34'0 0.6
2018-Jan-25 16:30N 39°16' W 076°35'  

Dump ship's entire track history